Time;durP1;ratioP1;P1;durP2;ratioP2;P2;SDS_P1;SDS_P2;PMS_P1;PMS_P2;Temp;Humidity;BMP_temperature;BMP_pressure;BME280_temperature;BME280_humidity;BME280_pressure;Samples;Min_cycle;Max_cycle;Signal;HPM_P1;HPM_P2
2022/04/08 00:00:04;;;;;;;;;;;;;;;7.25;100.00;96890.25;5001425;28;19940;-46
2022/04/08 00:02:29;;;;;;;;;;;;;;;6.99;100.00;96900.13;5000884;28;19983;-45
2022/04/08 00:04:55;;;;;;;;;;;;;;;7.20;100.00;96893.06;4999843;28;20214;-47
2022/04/08 00:07:20;;;;;;;;;;;;;;;6.78;100.00;96901.25;5009926;28;19921;-44
2022/04/08 00:09:46;;;;;;;;;;;;;;;6.65;100.00;96936.81;5009041;28;19940;-45
2022/04/08 00:12:11;;;;;;;;;;;;;;;7.00;100.00;96917.16;4995473;28;19917;-45
2022/04/08 00:14:36;;;;;;;;;;;;;;;6.79;100.00;96908.00;4996864;28;19914;-45
2022/04/08 00:17:02;;;;;;;;;;;;;;;7.01;100.00;96926.47;5009403;28;20123;-44
2022/04/08 00:19:28;;;;;;;;;;;;;;;7.26;100.00;96938.03;4995984;28;19917;-46
2022/04/08 00:21:53;;;;;;;;;;;;;;;6.70;100.00;96953.63;4995333;28;19940;-46
2022/04/08 00:24:18;;;;;;;;;;;;;;;6.68;100.00;96942.63;5001897;28;19972;-48
2022/04/08 00:26:45;;;;;;;;;;;;;;;6.42;100.00;96948.16;5000304;28;19914;-46
2022/04/08 00:29:11;;;;;;;;;;;;;;;6.56;100.00;96948.31;4991259;28;19914;-45
2022/04/08 00:31:36;;;;;;;;;;;;;;;6.84;100.00;96962.31;4995238;28;20024;-44
2022/04/08 00:34:02;;;;;;;;;;;;;;;6.95;100.00;96960.03;5001696;28;19917;-45
2022/04/08 00:36:27;;;;;;;;;;;;;;;6.76;100.00;96967.81;5001806;28;19968;-45
2022/04/08 00:38:52;;;;;;;;;;;;;;;6.70;100.00;96976.63;4991101;28;19957;-44
2022/04/08 00:41:17;;;;;;;;;;;;;;;6.91;100.00;96984.13;4994438;28;20442;-45
2022/04/08 00:43:43;;;;;;;;;;;;;;;6.14;100.00;96990.38;5003064;28;20363;-46
2022/04/08 00:46:09;;;;;;;;;;;;;;;6.59;100.00;96984.00;5001339;28;19925;-45
2022/04/08 00:48:36;;;;;;;;;;;;;;;6.50;100.00;96987.00;5009477;28;19918;-48
2022/04/08 00:51:01;;;;;;;;;;;;;;;6.52;100.00;96992.84;5008698;28;20299;-46
2022/04/08 00:53:27;;;;;;;;;;;;;;;6.43;100.00;96998.41;5014720;28;20007;-47
2022/04/08 00:55:52;;;;;;;;;;;;;;;6.76;100.00;96995.94;5008947;28;20406;-45
2022/04/08 00:58:18;;;;;;;;;;;;;;;6.49;100.00;96998.94;4990316;28;20378;-45
2022/04/08 01:00:43;;;;;;;;;;;;;;;6.59;100.00;97001.91;4993351;28;20012;-45
2022/04/08 01:03:08;;;;;;;;;;;;;;;6.60;100.00;97011.22;4992454;28;21409;-45
2022/04/08 01:05:34;;;;;;;;;;;;;;;6.41;100.00;97016.38;4996976;28;19913;-45
2022/04/08 01:07:59;;;;;;;;;;;;;;;6.43;100.00;97029.06;4997512;28;19925;-46
2022/04/08 01:10:24;;;;;;;;;;;;;;;6.48;100.00;97024.59;4986432;28;20351;-46
2022/04/08 01:12:50;;;;;;;;;;;;;;;6.67;100.00;97034.78;4998829;28;19925;-46
2022/04/08 01:15:18;;;;;;;;;;;;;;;6.62;100.00;97029.88;4995156;28;19924;-46
2022/04/08 01:17:44;;;;;;;;;;;;;;;6.86;100.00;97032.97;4999286;28;20381;-46
2022/04/08 01:20:09;;;;;;;;;;;;;;;6.57;100.00;97039.50;5007876;28;19918;-47
2022/04/08 01:22:35;;;;;;;;;;;;;;;6.78;100.00;97029.97;5004629;28;20022;-46
2022/04/08 01:25:04;;;;;;;;;;;;;;;6.89;100.00;97037.94;4994414;28;19918;-47
2022/04/08 01:27:29;;;;;;;;;;;;;;;6.79;100.00;97046.13;4993860;28;19953;-46
2022/04/08 01:29:55;;;;;;;;;;;;;;;7.07;100.00;97046.47;5002905;28;19956;-47
2022/04/08 01:32:20;;;;;;;;;;;;;;;6.34;100.00;97039.72;4992683;28;19972;-47
2022/04/08 01:34:48;;;;;;;;;;;;;;;6.51;100.00;97070.47;4992246;28;20403;-46
2022/04/08 01:37:14;;;;;;;;;;;;;;;6.39;100.00;97074.44;4989341;28;19918;-45
2022/04/08 01:39:40;;;;;;;;;;;;;;;6.13;100.00;97087.56;5001604;28;19961;-46
2022/04/08 01:42:05;;;;;;;;;;;;;;;6.41;100.00;97072.63;4989444;28;19936;-45
2022/04/08 01:44:30;;;;;;;;;;;;;;;6.64;100.00;97069.00;5001580;28;19926;-46
2022/04/08 01:46:56;;;;;;;;;;;;;;;6.40;100.00;97085.47;4993397;28;20441;-47
2022/04/08 01:49:21;;;;;;;;;;;;;;;6.31;100.00;97080.78;4988830;28;20346;-46
2022/04/08 01:51:46;;;;;;;;;;;;;;;6.55;100.00;97079.66;4991723;28;20279;-45
2022/04/08 01:54:11;;;;;;;;;;;;;;;6.15;100.00;97096.81;4996802;28;19929;-48
2022/04/08 01:56:37;;;;;;;;;;;;;;;6.05;100.00;97118.56;4991552;28;19914;-45
2022/04/08 01:59:02;;;;;;;;;;;;;;;6.15;100.00;97113.88;5006540;28;19975;-45
2022/04/08 02:01:27;;;;;;;;;;;;;;;6.13;100.00;97113.94;4991392;28;20384;-46
2022/04/08 02:03:52;;;;;;;;;;;;;;;6.02;100.00;97126.34;4996090;28;19921;-45
2022/04/08 02:06:18;;;;;;;;;;;;;;;6.27;100.00;97126.09;4998950;28;20341;-48
2022/04/08 02:08:43;;;;;;;;;;;;;;;6.05;100.00;97131.34;5004093;28;19917;-45
2022/04/08 02:11:08;;;;;;;;;;;;;;;6.15;100.00;97126.66;4996330;28;19956;-46
2022/04/08 02:13:33;;;;;;;;;;;;;;;6.26;100.00;97135.50;5004188;28;19917;-50
2022/04/08 02:15:59;;;;;;;;;;;;;;;6.12;100.00;97137.03;4995383;28;20012;-46
2022/04/08 02:18:24;;;;;;;;;;;;;;;5.60;100.00;97140.88;4999868;28;20048;-45
2022/04/08 02:20:51;;;;;;;;;;;;;;;5.82;100.00;97143.34;5005289;28;19918;-48
2022/04/08 02:23:16;;;;;;;;;;;;;;;6.05;100.00;97144.94;4996636;28;19922;-46
2022/04/08 02:25:42;;;;;;;;;;;;;;;6.12;100.00;97149.81;4997507;28;19940;-47
2022/04/08 02:28:07;;;;;;;;;;;;;;;5.95;100.00;97158.19;4986921;28;19952;-45
2022/04/08 02:30:32;;;;;;;;;;;;;;;5.87;100.00;97153.38;4989486;28;19917;-45
2022/04/08 02:33:01;;;;;;;;;;;;;;;5.61;100.00;97177.44;5000945;28;19966;-47
2022/04/08 02:35:26;;;;;;;;;;;;;;;5.96;100.00;97172.63;5002836;28;20529;-45
2022/04/08 02:37:52;;;;;;;;;;;;;;;5.63;100.00;97171.41;5001780;28;19914;-48
2022/04/08 02:40:17;;;;;;;;;;;;;;;5.97;100.00;97179.38;4993193;28;19924;-45
2022/04/08 02:42:42;;;;;;;;;;;;;;;5.99;100.00;97178.41;5003445;28;20592;-45
2022/04/08 02:45:08;;;;;;;;;;;;;;;5.56;100.00;97194.69;4995648;28;19922;-46
2022/04/08 02:47:39;;;;;;;;;;;;;;;5.94;100.00;97193.13;4993284;28;19924;-46
2022/04/08 02:50:04;;;;;;;;;;;;;;;5.58;100.00;97191.16;4989547;28;19914;-45
2022/04/08 02:52:29;;;;;;;;;;;;;;;5.75;100.00;97203.25;4993669;28;19996;-49
2022/04/08 02:54:55;;;;;;;;;;;;;;;5.83;100.00;97200.38;4998294;28;20011;-45
2022/04/08 02:57:20;;;;;;;;;;;;;;;5.69;100.00;97211.16;5005400;28;19918;-45
2022/04/08 02:59:45;;;;;;;;;;;;;;;5.74;100.00;97214.34;5010492;28;20536;-45
2022/04/08 03:02:10;;;;;;;;;;;;;;;5.76;100.00;97211.75;4998818;28;19976;-46
2022/04/08 03:04:35;;;;;;;;;;;;;;;6.07;100.00;97224.94;5000450;28;19928;-45
2022/04/08 03:07:01;;;;;;;;;;;;;;;5.83;100.00;97213.97;5006349;28;19922;-47
2022/04/08 03:09:27;;;;;;;;;;;;;;;5.50;100.00;97226.41;5007197;28;19926;-45
2022/04/08 03:11:52;;;;;;;;;;;;;;;5.91;100.00;97225.59;5005294;28;20366;-49
2022/04/08 03:14:18;;;;;;;;;;;;;;;5.65;100.00;97224.94;5011157;28;20000;-46
2022/04/08 03:16:43;;;;;;;;;;;;;;;5.16;100.00;97242.22;5008975;28;19918;-47
2022/04/08 03:19:08;;;;;;;;;;;;;;;5.37;100.00;97226.06;5006821;28;20032;-46
2022/04/08 03:21:33;;;;;;;;;;;;;;;5.21;100.00;97247.97;5000490;28;20344;-45
2022/04/08 03:23:59;;;;;;;;;;;;;;;5.15;100.00;97266.06;5007116;28;19992;-46
2022/04/08 03:26:24;;;;;;;;;;;;;;;5.24;100.00;97253.81;5010661;28;19918;-50
2022/04/08 03:28:49;;;;;;;;;;;;;;;5.12;100.00;97243.22;4995879;28;19921;-45
2022/04/08 03:31:15;;;;;;;;;;;;;;;5.13;100.00;97243.19;5006121;28;20569;-45
2022/04/08 03:33:40;;;;;;;;;;;;;;;5.09;100.00;97245.91;5008312;28;20028;-46
2022/04/08 03:36:06;;;;;;;;;;;;;;;5.17;100.00;97243.88;5011470;28;20550;-46
2022/04/08 03:38:31;;;;;;;;;;;;;;;5.05;100.00;97245.19;5003394;28;19921;-49
2022/04/08 03:40:56;;;;;;;;;;;;;;;5.19;100.00;97237.00;5006130;28;19918;-48
2022/04/08 03:43:21;;;;;;;;;;;;;;;5.25;100.00;97241.88;5002896;28;20274;-46
2022/04/08 03:45:47;;;;;;;;;;;;;;;5.32;100.00;97248.41;5011723;28;19953;-45
2022/04/08 03:48:12;;;;;;;;;;;;;;;5.31;100.00;97251.81;5001909;28;19968;-46
2022/04/08 03:50:37;;;;;;;;;;;;;;;5.10;100.00;97252.66;5005436;28;20017;-46
2022/04/08 03:53:02;;;;;;;;;;;;;;;5.45;100.00;97247.03;5006538;28;20337;-47
2022/04/08 03:55:28;;;;;;;;;;;;;;;5.28;100.00;97266.44;5012257;28;19914;-49
2022/04/08 03:57:53;;;;;;;;;;;;;;;5.37;100.00;97260.97;5010090;28;19924;-46
2022/04/08 04:00:18;;;;;;;;;;;;;;;5.64;100.00;97266.72;5011927;28;19952;-47
2022/04/08 04:02:43;;;;;;;;;;;;;;;5.17;100.00;97275.31;5010689;28;20489;-47
2022/04/08 04:05:09;;;;;;;;;;;;;;;5.32;100.00;97279.03;5010490;28;19984;-45
2022/04/08 04:07:34;;;;;;;;;;;;;;;5.33;100.00;97285.78;5002469;28;19925;-46
2022/04/08 04:10:00;;;;;;;;;;;;;;;5.13;100.00;97293.34;5010985;28;20404;-46
2022/04/08 04:12:26;;;;;;;;;;;;;;;5.27;100.00;97288.59;5006692;28;19928;-45
2022/04/08 04:14:52;;;;;;;;;;;;;;;5.39;100.00;97298.31;5005188;28;21275;-46
2022/04/08 04:17:18;;;;;;;;;;;;;;;5.71;100.00;97301.31;5010188;28;19918;-44
2022/04/08 04:19:43;;;;;;;;;;;;;;;5.08;100.00;97310.56;5010462;28;19921;-45
2022/04/08 04:22:09;;;;;;;;;;;;;;;5.40;100.00;97307.63;5002173;28;19936;-46
2022/04/08 04:24:34;;;;;;;;;;;;;;;5.44;100.00;97311.72;5010746;28;19917;-45
2022/04/08 04:26:59;;;;;;;;;;;;;;;5.58;100.00;97318.03;5011058;28;19913;-48
2022/04/08 04:29:26;;;;;;;;;;;;;;;5.34;100.00;97322.38;5006584;28;20200;-46
2022/04/08 04:31:55;;;;;;;;;;;;;;;5.71;100.00;97323.50;5009864;28;19913;-46
2022/04/08 04:34:20;;;;;;;;;;;;;;;5.48;100.00;97326.94;4998637;28;19972;-46
2022/04/08 04:36:45;;;;;;;;;;;;;;;5.59;100.00;97322.25;5010460;28;19921;-45
2022/04/08 04:39:11;;;;;;;;;;;;;;;5.58;100.00;97320.56;4997069;28;19921;-47
2022/04/08 04:41:37;;;;;;;;;;;;;;;5.61;100.00;97331.50;5008603;28;20004;-45
2022/04/08 04:44:02;;;;;;;;;;;;;;;5.27;100.00;97326.00;5010732;28;19925;-45
2022/04/08 04:46:27;;;;;;;;;;;;;;;5.51;100.00;97324.25;5007139;28;19921;-44
2022/04/08 04:48:52;;;;;;;;;;;;;;;5.63;100.00;97324.63;5009366;28;19913;-45
2022/04/08 04:51:18;;;;;;;;;;;;;;;5.92;100.00;97316.69;5007154;28;19920;-44
2022/04/08 04:53:43;;;;;;;;;;;;;;;5.99;100.00;97323.25;5002532;28;19921;-45
2022/04/08 04:56:08;;;;;;;;;;;;;;;6.18;100.00;97321.59;5007670;28;19956;-45
2022/04/08 04:58:33;;;;;;;;;;;;;;;6.14;100.00;97330.28;5001699;28;19944;-46
2022/04/08 05:00:59;;;;;;;;;;;;;;;6.23;100.00;97329.91;5010825;28;20011;-45
2022/04/08 05:03:24;;;;;;;;;;;;;;;5.89;100.00;97335.53;5010155;28;19925;-45
2022/04/08 05:05:51;;;;;;;;;;;;;;;5.94;100.00;97333.66;5008840;28;20384;-47
2022/04/08 05:08:16;;;;;;;;;;;;;;;5.85;100.00;97336.53;5005783;28;19920;-46
2022/04/08 05:10:41;;;;;;;;;;;;;;;5.59;100.00;97337.56;5010767;28;19917;-45
2022/04/08 05:13:06;;;;;;;;;;;;;;;5.82;100.00;97340.06;5009718;28;20458;-46
2022/04/08 05:15:37;;;;;;;;;;;;;;;6.45;100.00;97336.66;5010174;28;19988;-45
2022/04/08 05:18:03;;;;;;;;;;;;;;;6.04;100.00;97339.22;5007952;28;19948;-49
2022/04/08 05:20:28;;;;;;;;;;;;;;;5.90;100.00;97346.56;5011112;28;19913;-45
2022/04/08 05:22:53;;;;;;;;;;;;;;;5.88;100.00;97351.72;5009600;28;19961;-46
2022/04/08 05:25:18;;;;;;;;;;;;;;;5.70;100.00;97358.38;5009575;28;20274;-45
2022/04/08 05:27:44;;;;;;;;;;;;;;;5.53;100.00;97359.06;5004089;28;20370;-45
2022/04/08 05:30:13;;;;;;;;;;;;;;;5.71;100.00;97364.34;5009115;28;20024;-46
2022/04/08 05:32:41;;;;;;;;;;;;;;;6.19;100.00;97364.16;5003885;28;20370;-46
2022/04/08 05:35:06;;;;;;;;;;;;;;;5.89;100.00;97365.38;5008189;28;20383;-45
2022/04/08 05:37:37;;;;;;;;;;;;;;;6.12;100.00;97357.63;5005832;28;19953;-46
2022/04/08 05:40:02;;;;;;;;;;;;;;;6.14;100.00;97360.97;5010150;28;20362;-45
2022/04/08 05:42:27;;;;;;;;;;;;;;;5.96;100.00;97377.03;5009484;28;19921;-46
2022/04/08 05:44:52;;;;;;;;;;;;;;;6.92;100.00;97372.19;5007807;28;19922;-46
2022/04/08 05:47:18;;;;;;;;;;;;;;;6.39;100.00;97375.31;5008109;28;19914;-45
2022/04/08 05:49:43;;;;;;;;;;;;;;;6.82;100.00;97365.78;5007333;28;19920;-46
2022/04/08 05:52:08;;;;;;;;;;;;;;;6.09;100.00;97360.31;5008629;28;19936;-46
2022/04/08 05:54:33;;;;;;;;;;;;;;;6.75;100.00;97361.84;5009010;28;19924;-47
2022/04/08 05:57:00;;;;;;;;;;;;;;;6.61;100.00;97360.69;5009730;28;19914;-49
2022/04/08 05:59:26;;;;;;;;;;;;;;;7.09;100.00;97356.94;5009586;28;19913;-47
2022/04/08 06:01:51;;;;;;;;;;;;;;;7.25;100.00;97363.91;5009291;28;19971;-48
2022/04/08 06:04:17;;;;;;;;;;;;;;;7.48;100.00;97371.41;5008509;28;19917;-50
2022/04/08 06:06:43;;;;;;;;;;;;;;;7.08;100.00;97360.38;5009410;28;19918;-47
2022/04/08 06:09:08;;;;;;;;;;;;;;;6.48;100.00;97359.56;5007376;28;19932;-47
2022/04/08 06:11:34;;;;;;;;;;;;;;;7.28;100.00;97361.22;5009086;28;20297;-44
2022/04/08 06:13:59;;;;;;;;;;;;;;;6.38;100.00;97364.22;5009984;28;19917;-43
2022/04/08 06:16:25;;;;;;;;;;;;;;;6.76;100.00;97358.41;5009116;28;19921;-46
2022/04/08 06:18:50;;;;;;;;;;;;;;;6.83;100.00;97368.28;5009125;28;20395;-43
2022/04/08 06:21:16;;;;;;;;;;;;;;;6.42;100.00;97365.75;5008882;28;19920;-44
2022/04/08 06:23:41;;;;;;;;;;;;;;;6.53;100.00;97361.94;5009101;28;20349;-45
2022/04/08 06:26:06;;;;;;;;;;;;;;;6.68;100.00;97362.13;5009326;28;20283;-44
2022/04/08 06:28:31;;;;;;;;;;;;;;;6.50;100.00;97347.56;5015113;28;19928;-43
2022/04/08 06:30:56;;;;;;;;;;;;;;;7.07;100.00;97358.72;5013873;28;19920;-47
2022/04/08 06:33:23;;;;;;;;;;;;;;;6.55;100.00;97347.38;5015220;28;19931;-45
2022/04/08 06:35:48;;;;;;;;;;;;;;;6.82;100.00;97358.13;5016136;28;19920;-43
2022/04/08 06:38:15;;;;;;;;;;;;;;;7.48;100.00;97357.75;5014324;28;19917;-43
2022/04/08 06:40:40;;;;;;;;;;;;;;;7.64;100.00;97361.28;5015956;28;19913;-43
2022/04/08 06:43:06;;;;;;;;;;;;;;;7.59;100.00;97347.00;5015227;28;19918;-46
2022/04/08 06:45:31;;;;;;;;;;;;;;;6.61;100.00;97347.09;5016131;28;19979;-49
2022/04/08 06:47:56;;;;;;;;;;;;;;;8.05;100.00;97347.38;5014934;28;20550;-43
2022/04/08 06:50:21;;;;;;;;;;;;;;;7.74;100.00;97348.84;5016059;28;19960;-45
2022/04/08 06:52:47;;;;;;;;;;;;;;;7.87;100.00;97354.25;5015115;28;19919;-46
2022/04/08 06:55:12;;;;;;;;;;;;;;;7.25;100.00;97343.44;5015584;28;20386;-47
2022/04/08 06:57:37;;;;;;;;;;;;;;;8.47;100.00;97339.34;5015201;28;19952;-47
2022/04/08 07:00:04;;;;;;;;;;;;;;;7.84;100.00;97350.06;5015120;28;20589;-46
2022/04/08 07:02:29;;;;;;;;;;;;;;;7.05;100.00;97341.78;5015174;28;20011;-44
2022/04/08 07:04:54;;;;;;;;;;;;;;;7.56;100.00;97347.16;5015207;28;20015;-43
2022/04/08 07:07:20;;;;;;;;;;;;;;;7.11;100.00;97350.00;5014605;28;19937;-43
2022/04/08 07:09:45;;;;;;;;;;;;;;;7.19;100.00;97346.28;5013609;28;19913;-44
2022/04/08 07:12:10;;;;;;;;;;;;;;;7.47;100.00;97344.09;5010581;28;19971;-48
2022/04/08 07:14:36;;;;;;;;;;;;;;;7.08;100.00;97339.91;5015455;28;19944;-47
2022/04/08 07:17:01;;;;;;;;;;;;;;;8.14;100.00;97341.81;5015769;28;19918;-44
2022/04/08 07:19:26;;;;;;;;;;;;;;;8.35;100.00;97330.50;5013628;28;19926;-43
2022/04/08 07:21:51;;;;;;;;;;;;;;;7.82;100.00;97325.41;5012609;28;19914;-44
2022/04/08 07:24:17;;;;;;;;;;;;;;;7.63;100.00;97326.28;5008711;28;19995;-45
2022/04/08 07:26:42;;;;;;;;;;;;;;;8.11;100.00;97321.47;5015363;28;19917;-44
2022/04/08 07:29:07;;;;;;;;;;;;;;;9.61;100.00;97318.81;5014683;28;19945;-44
2022/04/08 07:31:34;;;;;;;;;;;;;;;8.70;100.00;97316.84;5014435;28;19921;-43
2022/04/08 07:33:59;;;;;;;;;;;;;;;8.08;100.00;97306.22;5013620;28;20370;-45
2022/04/08 07:36:26;;;;;;;;;;;;;;;8.43;100.00;97306.22;5015256;28;19964;-45
2022/04/08 07:38:51;;;;;;;;;;;;;;;8.29;100.00;97300.03;5011581;28;20011;-45
2022/04/08 07:41:16;;;;;;;;;;;;;;;8.55;100.00;97305.59;5011608;28;20372;-44
2022/04/08 07:43:42;;;;;;;;;;;;;;;8.61;100.00;97302.72;5011677;28;19917;-46
2022/04/08 07:46:07;;;;;;;;;;;;;;;7.58;100.00;97301.81;5012120;28;19914;-43
2022/04/08 07:48:33;;;;;;;;;;;;;;;8.87;100.00;97301.41;5011737;28;19917;-46
2022/04/08 07:50:58;;;;;;;;;;;;;;;7.68;100.00;97305.59;5010839;28;20485;-44
2022/04/08 07:53:24;;;;;;;;;;;;;;;7.99;100.00;97301.56;5010827;28;19971;-43
2022/04/08 07:55:49;;;;;;;;;;;;;;;8.88;100.00;97302.22;5012210;28;19924;-43
2022/04/08 07:58:15;;;;;;;;;;;;;;;8.05;100.00;97290.97;5010325;28;20401;-46
2022/04/08 08:00:40;;;;;;;;;;;;;;;8.04;100.00;97300.41;5011168;28;20497;-45
2022/04/08 08:03:05;;;;;;;;;;;;;;;7.90;100.00;97303.66;5009903;28;19925;-45
2022/04/08 08:05:32;;;;;;;;;;;;;;;7.88;100.00;97310.59;5011545;28;19925;-44
2022/04/08 08:07:58;;;;;;;;;;;;;;;7.29;100.00;97317.59;5007997;28;19917;-45
2022/04/08 08:10:23;;;;;;;;;;;;;;;7.95;100.00;97311.94;5006349;28;19973;-44
2022/04/08 08:12:49;;;;;;;;;;;;;;;8.21;100.00;97312.41;4995869;28;19954;-44
2022/04/08 08:15:15;;;;;;;;;;;;;;;8.47;100.00;97300.06;5009414;28;20339;-43
2022/04/08 08:17:40;;;;;;;;;;;;;;;8.40;100.00;97307.22;5011750;28;19913;-44
2022/04/08 08:20:06;;;;;;;;;;;;;;;9.16;100.00;97302.41;5011165;28;19917;-44
2022/04/08 08:22:32;;;;;;;;;;;;;;;8.26;100.00;97300.19;5010836;28;19917;-44
2022/04/08 08:24:57;;;;;;;;;;;;;;;8.16;100.00;97298.97;5010909;28;20016;-44
2022/04/08 08:27:22;;;;;;;;;;;;;;;8.18;100.00;97287.72;5011681;28;19914;-43
2022/04/08 08:29:47;;;;;;;;;;;;;;;7.74;100.00;97287.38;5011011;28;20406;-43
2022/04/08 08:32:13;;;;;;;;;;;;;;;7.84;100.00;97286.00;5007415;28;20373;-44
2022/04/08 08:34:38;;;;;;;;;;;;;;;8.38;100.00;97286.75;4999438;28;20263;-44
2022/04/08 08:37:05;;;;;;;;;;;;;;;8.27;100.00;97283.88;5010048;28;20266;-46
2022/04/08 08:39:30;;;;;;;;;;;;;;;8.17;100.00;97285.28;5010555;28;19921;-46
2022/04/08 08:41:55;;;;;;;;;;;;;;;8.12;100.00;97287.25;5001971;28;19915;-43
2022/04/08 08:44:20;;;;;;;;;;;;;;;8.03;100.00;97278.25;5011132;28;19933;-45
2022/04/08 08:46:46;;;;;;;;;;;;;;;8.22;100.00;97280.72;5010511;28;19913;-46
2022/04/08 08:49:11;;;;;;;;;;;;;;;8.03;100.00;97283.38;5008940;28;19968;-46
2022/04/08 08:51:37;;;;;;;;;;;;;;;8.30;100.00;97278.63;5009568;28;20393;-48
2022/04/08 08:54:02;;;;;;;;;;;;;;;8.59;100.00;97272.00;5010204;28;19920;-46
2022/04/08 08:56:27;;;;;;;;;;;;;;;9.47;100.00;97264.78;5008992;28;19918;-43
2022/04/08 08:58:52;;;;;;;;;;;;;;;8.83;100.00;97269.09;4997788;28;19997;-45
2022/04/08 09:01:18;;;;;;;;;;;;;;;8.26;100.00;97264.28;5001668;28;19926;-44
2022/04/08 09:03:44;;;;;;;;;;;;;;;9.14;100.00;97265.69;5010151;28;20389;-45
2022/04/08 09:06:10;;;;;;;;;;;;;;;9.34;100.00;97254.34;5009517;28;19924;-47
2022/04/08 09:08:35;;;;;;;;;;;;;;;8.78;100.00;97259.06;5010125;28;20322;-47
2022/04/08 09:11:01;;;;;;;;;;;;;;;9.10;100.00;97246.25;5009811;28;20004;-45
2022/04/08 09:13:28;;;;;;;;;;;;;;;8.79;100.00;97247.88;5009588;28;20326;-47
2022/04/08 09:15:56;;;;;;;;;;;;;;;9.52;100.00;97234.50;5010528;28;19914;-44
2022/04/08 09:18:22;;;;;;;;;;;;;;;10.15;100.00;97224.91;5010276;28;19917;-45
2022/04/08 09:20:49;;;;;;;;;;;;;;;8.72;100.00;97233.72;5010117;28;19925;-44
2022/04/08 09:23:14;;;;;;;;;;;;;;;8.40;100.00;97229.41;5000216;28;19918;-43
2022/04/08 09:25:40;;;;;;;;;;;;;;;8.60;100.00;97226.69;5010333;28;20341;-46
2022/04/08 09:28:16;;;;;;;;;;;;;;;8.23;100.00;97220.00;5010171;28;20006;-43
2022/04/08 09:30:47;;;;;;;;;;;;;;;9.89;100.00;97216.16;5006675;28;20641;-44
2022/04/08 09:33:13;;;;;;;;;;;;;;;10.15;100.00;97205.19;5005165;28;19921;-43
2022/04/08 09:35:38;;;;;;;;;;;;;;;9.85;100.00;97184.66;5008833;28;20521;-43
2022/04/08 09:38:04;;;;;;;;;;;;;;;10.36;100.00;97177.38;5009956;28;20008;-43
2022/04/08 09:40:36;;;;;;;;;;;;;;;8.78;100.00;97176.94;5009191;28;19917;-44
2022/04/08 09:43:02;;;;;;;;;;;;;;;8.65;100.00;97177.69;5007556;28;20011;-43
2022/04/08 09:45:30;;;;;;;;;;;;;;;8.92;100.00;97165.09;5010331;28;20429;-44
2022/04/08 09:47:55;;;;;;;;;;;;;;;8.56;100.00;97159.28;5008669;28;20004;-43
2022/04/08 09:50:21;;;;;;;;;;;;;;;8.33;100.00;97157.91;5008134;28;20012;-43
2022/04/08 09:52:46;;;;;;;;;;;;;;;8.62;100.00;97152.16;5009307;28;19913;-43
2022/04/08 09:55:12;;;;;;;;;;;;;;;9.72;100.00;97145.19;5004305;28;19921;-44
2022/04/08 09:57:37;;;;;;;;;;;;;;;8.97;100.00;97142.56;5009897;28;19913;-45
2022/04/08 10:00:03;;;;;;;;;;;;;;;9.33;100.00;97133.72;5008422;28;19920;-46
2022/04/08 10:02:28;;;;;;;;;;;;;;;8.73;100.00;97134.44;5007199;28;19917;-45
2022/04/08 10:04:57;;;;;;;;;;;;;;;9.19;100.00;97125.03;5007585;28;20036;-45
2022/04/08 10:07:22;;;;;;;;;;;;;;;8.99;100.00;97126.16;5000699;28;19921;-44
2022/04/08 10:10:06;;;;;;;;;;;;;;;9.95;100.00;97121.50;5005558;28;19943;-45
2022/04/08 10:12:35;;;;;;;;;;;;;;;9.21;100.00;97115.50;5009080;28;20329;-43
2022/04/08 10:15:00;;;;;;;;;;;;;;;8.92;100.00;97124.03;5007977;28;19968;-43
2022/04/08 10:17:25;;;;;;;;;;;;;;;8.96;100.00;97115.22;5008906;28;19921;-44
2022/04/08 10:19:51;;;;;;;;;;;;;;;8.89;100.00;97122.44;5007643;28;20503;-43
2022/04/08 10:22:17;;;;;;;;;;;;;;;9.00;100.00;97117.53;5009393;28;19914;-44
2022/04/08 10:24:50;;;;;;;;;;;;;;;9.46;100.00;97116.66;5008920;28;19922;-44
2022/04/08 10:27:15;;;;;;;;;;;;;;;9.07;100.00;97118.00;5009061;28;19924;-43
2022/04/08 10:29:41;;;;;;;;;;;;;;;9.12;100.00;97115.19;5007572;28;20013;-44
2022/04/08 10:32:13;;;;;;;;;;;;;;;8.74;100.00;97118.16;5008619;28;19960;-43
2022/04/08 10:34:38;;;;;;;;;;;;;;;9.28;100.00;97104.88;5009470;28;19918;-44
2022/04/08 10:37:15;;;;;;;;;;;;;;;9.59;100.00;97109.88;5000975;28;19917;-43
2022/04/08 10:39:42;;;;;;;;;;;;;;;9.67;100.00;97106.03;5007821;28;20287;-44
2022/04/08 10:42:08;;;;;;;;;;;;;;;9.26;100.00;97106.69;5008343;28;19937;-43
2022/04/08 10:44:35;;;;;;;;;;;;;;;9.78;100.00;97098.53;5007135;28;20347;-44
2022/04/08 10:47:01;;;;;;;;;;;;;;;9.22;100.00;97098.34;5007428;28;20382;-45
2022/04/08 10:49:26;;;;;;;;;;;;;;;9.26;100.00;97096.41;5003442;28;19964;-43
2022/04/08 10:51:52;;;;;;;;;;;;;;;9.23;100.00;97105.13;5005264;28;19914;-43
2022/04/08 10:54:17;;;;;;;;;;;;;;;9.14;100.00;97101.34;5007451;28;19914;-44
2022/04/08 10:56:42;;;;;;;;;;;;;;;9.70;100.00;97103.31;5009047;28;19963;-43
2022/04/08 10:59:08;;;;;;;;;;;;;;;10.19;100.00;97101.19;5008447;28;20017;-43
2022/04/08 11:01:43;;;;;;;;;;;;;;;10.01;100.00;97100.56;5007107;28;19979;-44
2022/04/08 11:04:08;;;;;;;;;;;;;;;10.23;100.00;97094.94;5008983;28;19918;-44
2022/04/08 11:06:34;;;;;;;;;;;;;;;9.77;100.00;97118.28;5008955;28;19921;-47
2022/04/08 11:09:07;;;;;;;;;;;;;;;9.70;100.00;97111.03;5008973;28;19972;-45
2022/04/08 11:11:33;;;;;;;;;;;;;;;11.26;100.00;97106.50;5003660;28;19947;-45
2022/04/08 11:13:59;;;;;;;;;;;;;;;10.83;100.00;97098.97;5010939;28;20354;-46
2022/04/08 11:16:29;;;;;;;;;;;;;;;9.78;100.00;97108.81;5012013;28;19914;-46
2022/04/08 11:18:54;;;;;;;;;;;;;;;9.62;100.00;97109.72;5012769;28;19925;-44
2022/04/08 11:21:20;;;;;;;;;;;;;;;9.42;100.00;97095.47;5003902;28;20352;-44
2022/04/08 11:23:55;;;;;;;;;;;;;;;8.66;100.00;97100.59;5011441;28;20356;-45
2022/04/08 11:26:21;;;;;;;;;;;;;;;9.25;100.00;97087.06;5008394;28;19966;-47
2022/04/08 11:28:46;;;;;;;;;;;;;;;10.13;100.00;97085.31;5012147;28;19913;-45
2022/04/08 11:31:11;;;;;;;;;;;;;;;9.67;100.00;97081.19;5010659;28;20012;-45
2022/04/08 11:33:36;;;;;;;;;;;;;;;9.34;100.00;97076.28;5007675;28;19913;-44
2022/04/08 11:36:03;;;;;;;;;;;;;;;9.83;100.00;97076.78;5012860;28;19920;-44
2022/04/08 11:38:28;;;;;;;;;;;;;;;9.33;100.00;97077.19;5012506;28;19920;-44
2022/04/08 11:40:54;;;;;;;;;;;;;;;9.63;100.00;97059.97;5011447;28;19918;-45
2022/04/08 11:43:20;;;;;;;;;;;;;;;9.34;100.00;97068.56;5003579;28;20015;-44
2022/04/08 11:45:45;;;;;;;;;;;;;;;9.94;100.00;97060.69;5005120;28;20131;-45
2022/04/08 11:48:13;;;;;;;;;;;;;;;9.85;100.00;97053.53;5006449;28;19922;-45
2022/04/08 11:50:40;;;;;;;;;;;;;;;9.31;100.00;97048.19;5008227;28;19927;-46
2022/04/08 11:53:12;;;;;;;;;;;;;;;9.40;100.00;97039.97;5007516;28;20148;-45
2022/04/08 11:55:37;;;;;;;;;;;;;;;9.13;100.00;97044.94;5004740;28;19920;-46
2022/04/08 11:58:02;;;;;;;;;;;;;;;9.72;100.00;97034.66;5007497;28;19921;-46
2022/04/08 12:00:28;;;;;;;;;;;;;;;9.57;100.00;97023.53;5001039;28;20386;-47
2022/04/08 12:02:57;;;;;;;;;;;;;;;9.50;100.00;97033.34;5009749;28;19918;-48
2022/04/08 12:05:25;;;;;;;;;;;;;;;9.78;100.00;97031.69;5001653;28;19924;-46
2022/04/08 12:07:54;;;;;;;;;;;;;;;9.17;100.00;97021.56;5008078;28;19922;-47
2022/04/08 12:10:23;;;;;;;;;;;;;;;10.11;100.00;97025.44;5010528;28;19913;-45
2022/04/08 12:12:48;;;;;;;;;;;;;;;9.74;100.00;97032.78;5001839;28;19917;-45
2022/04/08 12:15:13;;;;;;;;;;;;;;;9.61;100.00;97020.69;5007795;28;20012;-46
2022/04/08 12:17:39;;;;;;;;;;;;;;;10.62;100.00;97007.66;5006170;28;19918;-45
2022/04/08 12:20:05;;;;;;;;;;;;;;;9.70;100.00;97010.78;5007584;28;19925;-45
2022/04/08 12:22:32;;;;;;;;;;;;;;;9.82;100.00;97004.88;5008554;28;19917;-45
2022/04/08 12:24:57;;;;;;;;;;;;;;;9.71;100.00;97002.97;5007004;28;19917;-47
2022/04/08 12:27:23;;;;;;;;;;;;;;;9.43;100.00;96999.47;5010726;28;19936;-47
2022/04/08 12:30:03;;;;;;;;;;;;;;;9.44;100.00;96997.72;5011258;28;19921;-45
2022/04/08 12:32:34;;;;;;;;;;;;;;;9.67;100.00;96998.09;5010846;28;19918;-45
2022/04/08 12:34:59;;;;;;;;;;;;;;;9.90;100.00;96989.81;5010324;28;19913;-45
2022/04/08 12:37:25;;;;;;;;;;;;;;;10.21;100.00;96982.75;5011749;28;19913;-45